createdAt,value
2019-05-20T00:00:29.615Z,5.67
2019-05-20T00:03:00.233Z,5.83
2019-05-20T00:05:32.280Z,5.40
2019-05-20T00:08:03.338Z,5.40
2019-05-20T00:10:33.898Z,5.73
2019-05-20T00:13:04.742Z,5.43
2019-05-20T00:15:35.892Z,6.17
2019-05-20T00:18:06.749Z,5.97
2019-05-20T00:20:37.654Z,5.90
2019-05-20T00:23:08.317Z,5.47
2019-05-20T00:25:39.226Z,5.13
2019-05-20T00:28:09.822Z,5.20
2019-05-20T00:30:40.453Z,5.65
2019-05-20T00:33:11.205Z,5.43
2019-05-20T00:35:42.100Z,5.90
2019-05-20T00:38:13.035Z,5.87
2019-05-20T00:40:44.104Z,5.90
2019-05-20T00:43:14.809Z,5.60
2019-05-20T00:45:45.968Z,5.17
2019-05-20T00:48:16.856Z,5.10
2019-05-20T00:50:47.958Z,5.40
2019-05-20T00:53:18.564Z,5.30
2019-05-20T00:55:49.123Z,5.77
2019-05-20T00:58:19.880Z,5.67
2019-05-20T01:00:50.474Z,6.15
2019-05-20T01:03:21.060Z,5.57
2019-05-20T01:05:51.979Z,5.30
2019-05-20T01:08:22.570Z,5.30
2019-05-20T01:10:53.135Z,5.33
2019-05-20T01:13:23.995Z,5.80
2019-05-20T01:15:55.114Z,5.40
2019-05-20T01:18:25.901Z,4.97
2019-05-20T01:20:57.807Z,5.40
2019-05-20T01:23:28.508Z,5.23
2019-05-20T01:25:59.168Z,6.07
2019-05-20T01:28:29.976Z,4.67
2019-05-20T01:31:00.968Z,5.70
2019-05-20T01:33:32.577Z,5.20
2019-05-20T01:36:03.243Z,4.90
2019-05-20T01:38:34.180Z,4.85
2019-05-20T01:41:05.066Z,5.53
2019-05-20T01:43:35.959Z,5.83
2019-05-20T01:46:06.686Z,5.43
2019-05-20T01:48:37.757Z,6.07
2019-05-20T01:51:08.324Z,5.97
2019-05-20T01:53:39.211Z,5.00
2019-05-20T01:56:09.781Z,5.10
2019-05-20T01:58:40.478Z,4.77
2019-05-20T02:01:11.157Z,4.40
2019-05-20T02:03:42.296Z,4.92
2019-05-20T02:06:12.986Z,4.13
2019-05-20T02:08:43.885Z,4.58
2019-05-20T02:11:14.496Z,3.70
2019-05-20T02:14:01.629Z,4.00
2019-05-20T02:16:32.498Z,4.30
2019-05-20T02:19:03.060Z,3.87
2019-05-20T02:21:34.274Z,3.87
2019-05-20T02:24:05.088Z,3.70
2019-05-20T02:26:36.255Z,4.33
2019-05-20T02:29:07.118Z,4.70
2019-05-20T02:31:37.697Z,4.47
2019-05-20T02:34:08.285Z,3.70
2019-05-20T02:36:39.151Z,4.10
2019-05-20T02:39:10.024Z,4.40
2019-05-20T02:41:40.574Z,3.80
2019-05-20T02:44:11.323Z,4.50
2019-05-20T02:46:42.185Z,4.50
2019-05-20T02:49:13.149Z,4.00
2019-05-20T02:51:44.308Z,4.72
2019-05-20T02:54:15.046Z,4.40
2019-05-20T02:56:45.606Z,3.90
2019-05-20T02:59:16.190Z,4.50
2019-05-20T03:01:47.204Z,4.25
2019-05-20T03:04:18.118Z,4.20
2019-05-20T03:06:48.736Z,4.28
2019-05-20T03:09:19.350Z,4.37
2019-05-20T03:11:49.961Z,4.03
2019-05-20T03:14:20.697Z,4.20
2019-05-20T03:16:51.565Z,4.30
2019-05-20T03:19:22.138Z,4.40
2019-05-20T03:21:52.700Z,4.57
2019-05-20T03:24:23.312Z,3.90
2019-05-20T03:26:54.139Z,5.00
2019-05-20T03:29:24.716Z,4.80
2019-05-20T03:31:55.592Z,4.53
2019-05-20T03:34:45.569Z,4.83
2019-05-20T03:36:58.566Z,5.10
2019-05-20T03:39:29.235Z,4.90
2019-05-20T03:42:00.127Z,5.40
2019-05-20T03:44:32.499Z,5.60
2019-05-20T03:47:03.322Z,5.53
2019-05-20T03:49:34.233Z,5.50
2019-05-20T03:52:05.152Z,5.40
2019-05-20T03:54:35.711Z,5.73
2019-05-20T03:57:06.288Z,5.83
2019-05-20T03:59:36.959Z,6.05
2019-05-20T04:02:07.748Z,5.80
2019-05-20T04:04:38.361Z,5.83
2019-05-20T04:07:09.263Z,6.47
2019-05-20T04:09:40.452Z,7.05
2019-05-20T04:12:11.300Z,7.30
2019-05-20T04:14:42.519Z,7.12
2019-05-20T04:17:13.430Z,7.00
2019-05-20T04:19:44.383Z,6.75
2019-05-20T04:22:15.356Z,7.83
2019-05-20T04:24:46.215Z,6.85
2019-05-20T04:27:16.893Z,7.00
2019-05-20T04:29:47.747Z,7.70
2019-05-20T04:32:18.417Z,7.40
2019-05-20T04:34:49.421Z,6.92
2019-05-20T04:37:20.329Z,7.90
2019-05-20T04:39:51.362Z,7.37
2019-05-20T04:42:22.233Z,7.03
2019-05-20T04:44:53.078Z,7.23
2019-05-20T04:47:25.159Z,7.00
2019-05-20T04:50:02.890Z,7.27
2019-05-20T04:52:33.736Z,7.40
2019-05-20T04:55:04.484Z,8.93
2019-05-20T04:57:35.335Z,8.47
2019-05-20T05:00:08.253Z,8.37
2019-05-20T05:02:42.934Z,8.93
2019-05-20T05:05:11.505Z,10.17
2019-05-20T05:07:42.451Z,10.17
2019-05-20T05:10:13.709Z,10.07
2019-05-20T05:12:44.378Z,10.53
2019-05-20T05:15:15.304Z,9.50
2019-05-20T05:17:46.235Z,10.27
2019-05-20T05:20:18.636Z,10.00
2019-05-20T05:22:49.431Z,11.77
2019-05-20T05:25:20.450Z,11.45
2019-05-20T05:27:51.055Z,10.90
2019-05-20T05:30:21.753Z,11.67
2019-05-20T05:32:52.382Z,12.03
2019-05-20T05:35:24.475Z,12.63
2019-05-20T05:37:55.145Z,11.20
2019-05-20T05:40:30.364Z,11.73
2019-05-20T05:43:01.043Z,10.70
2019-05-20T05:45:34.041Z,10.70
2019-05-20T05:48:04.840Z,12.33
2019-05-20T05:50:35.698Z,13.03
2019-05-20T05:53:06.602Z,13.27
2019-05-20T05:55:37.560Z,12.98
2019-05-20T05:58:08.953Z,12.90
2019-05-20T06:00:39.992Z,12.77
2019-05-20T06:03:10.801Z,12.40
2019-05-20T06:05:41.697Z,12.97
2019-05-20T06:08:12.573Z,12.73
2019-05-20T06:10:45.522Z,13.10
2019-05-20T06:13:15.919Z,12.17
2019-05-20T06:15:46.743Z,13.32
2019-05-20T06:18:17.430Z,12.27
2019-05-20T06:20:48.015Z,12.37
2019-05-20T06:23:18.801Z,13.63
2019-05-20T06:25:49.645Z,12.73
2019-05-20T06:28:20.534Z,12.20
2019-05-20T06:30:51.530Z,12.10
2019-05-20T06:33:22.196Z,12.63
2019-05-20T06:35:53.005Z,12.27
2019-05-20T06:38:42.472Z,12.90
2019-05-20T06:41:13.083Z,12.03
2019-05-20T06:43:43.729Z,11.70
2019-05-20T06:46:14.549Z,12.00
2019-05-20T06:48:45.125Z,12.10
2019-05-20T06:51:15.810Z,11.67
2019-05-20T06:53:46.881Z,11.88
2019-05-20T06:56:17.725Z,11.83
2019-05-20T06:58:48.744Z,11.57
2019-05-20T07:01:19.529Z,12.30
2019-05-20T07:03:50.772Z,10.43
2019-05-20T07:06:21.624Z,11.57
2019-05-20T07:08:52.680Z,11.47
2019-05-20T07:11:23.337Z,10.47
2019-05-20T07:13:53.973Z,10.70
2019-05-20T07:16:24.548Z,10.87
2019-05-20T07:18:55.152Z,10.60
2019-05-20T07:21:27.153Z,11.30
2019-05-20T07:23:57.839Z,9.97
2019-05-20T07:26:28.762Z,10.23
2019-05-20T07:28:59.717Z,9.75
2019-05-20T07:31:30.616Z,9.77
2019-05-20T07:34:01.236Z,9.60
2019-05-20T07:36:32.997Z,9.13
2019-05-20T07:39:05.806Z,9.93
2019-05-20T07:41:40.949Z,9.33
2019-05-20T07:44:09.283Z,10.43
2019-05-20T07:46:39.936Z,10.20
2019-05-20T07:49:11.465Z,9.13
2019-05-20T07:51:43.433Z,10.03
2019-05-20T07:54:14.845Z,9.57
2019-05-20T07:56:48.330Z,9.55
2019-05-20T07:59:23.981Z,9.70
2019-05-20T08:01:55.147Z,9.33
2019-05-20T08:04:25.771Z,8.53
2019-05-20T08:06:56.681Z,9.37
2019-05-20T08:09:27.367Z,8.20
2019-05-20T08:11:57.930Z,8.57
2019-05-20T08:14:28.806Z,8.33
2019-05-20T08:16:59.387Z,8.80
2019-05-20T08:19:29.978Z,8.43
2019-05-20T08:22:00.856Z,9.00
2019-05-20T08:24:33.146Z,8.35
2019-05-20T08:27:03.726Z,8.13
2019-05-20T08:29:34.953Z,7.92
2019-05-20T08:32:06.020Z,7.90
2019-05-20T08:34:38.038Z,8.68
2019-05-20T08:37:09.338Z,7.93
2019-05-20T08:39:40.326Z,8.60
2019-05-20T08:42:10.915Z,8.23
2019-05-20T08:44:41.963Z,8.10
2019-05-20T08:47:12.859Z,8.50
2019-05-20T08:49:44.240Z,8.58
2019-05-20T08:52:14.966Z,8.67
2019-05-20T08:54:45.946Z,8.00
2019-05-20T08:57:16.896Z,7.70
2019-05-20T08:59:47.961Z,7.28
2019-05-20T09:02:18.701Z,7.97
2019-05-20T09:04:49.283Z,7.90
2019-05-20T09:07:19.886Z,7.33
2019-05-20T09:09:51.077Z,7.45
2019-05-20T09:12:21.898Z,7.60
2019-05-20T09:14:52.865Z,7.53
2019-05-20T09:17:23.603Z,8.07
2019-05-20T09:19:54.204Z,8.27
2019-05-20T09:22:24.933Z,7.43
2019-05-20T09:24:55.875Z,7.63
2019-05-20T09:27:26.806Z,7.33
2019-05-20T09:29:57.391Z,7.83
2019-05-20T09:32:28.194Z,7.77
2019-05-20T09:34:59.891Z,7.37
2019-05-20T09:37:30.741Z,7.63
2019-05-20T09:40:01.384Z,7.30
2019-05-20T09:42:33.131Z,7.85
2019-05-20T09:45:04.409Z,7.53
2019-05-20T09:47:35.082Z,7.30
2019-05-20T09:50:06.630Z,7.73
2019-05-20T09:52:37.263Z,7.83
2019-05-20T09:55:07.911Z,7.93
2019-05-20T09:57:39.130Z,8.20
2019-05-20T10:00:10.270Z,8.07
2019-05-20T10:02:41.221Z,8.00
2019-05-20T10:05:20.321Z,8.03
2019-05-20T10:07:51.418Z,7.85
2019-05-20T10:10:22.645Z,9.13
2019-05-20T10:12:53.604Z,9.43
2019-05-20T10:15:25.194Z,9.13
2019-05-20T10:17:55.941Z,9.23
2019-05-20T10:20:26.540Z,10.15
2019-05-20T10:22:57.435Z,9.30
2019-05-20T10:25:28.194Z,9.10
2019-05-20T10:27:59.194Z,9.07
2019-05-20T10:30:29.959Z,10.03
2019-05-20T10:33:00.874Z,10.67
2019-05-20T10:35:33.178Z,10.46
2019-05-20T10:38:04.255Z,10.73
2019-05-20T10:40:35.445Z,11.33
2019-05-20T10:43:06.330Z,11.07
2019-05-20T10:45:37.134Z,10.55
2019-05-20T10:48:09.001Z,10.30
2019-05-20T10:50:40.206Z,10.57
2019-05-20T10:53:10.834Z,10.30
2019-05-20T10:55:41.888Z,11.20
2019-05-20T10:58:12.476Z,10.73
2019-05-20T11:01:00.990Z,10.88
2019-05-20T11:03:15.849Z,10.40
2019-05-20T11:05:46.758Z,10.03
2019-05-20T11:08:17.772Z,9.53
2019-05-20T11:10:48.355Z,9.90
2019-05-20T11:13:19.078Z,10.17
2019-05-20T11:15:49.737Z,10.10
2019-05-20T11:18:20.544Z,10.27
2019-05-20T11:20:51.418Z,9.85
2019-05-20T11:23:26.638Z,10.60
2019-05-20T11:25:58.400Z,11.13
2019-05-20T11:28:32.599Z,9.77
2019-05-20T11:31:03.283Z,10.00
2019-05-20T11:33:34.191Z,9.60
2019-05-20T11:36:05.355Z,9.70
2019-05-20T11:38:37.471Z,9.87
2019-05-20T11:41:08.293Z,9.43
2019-05-20T11:43:39.702Z,9.70
2019-05-20T11:46:10.910Z,8.87
2019-05-20T11:48:44.806Z,9.77
2019-05-20T11:51:15.438Z,9.60
2019-05-20T11:53:46.318Z,9.50
2019-05-20T11:56:17.383Z,9.00
2019-05-20T11:58:48.343Z,9.23
2019-05-20T12:01:19.251Z,9.47
2019-05-20T12:03:51.144Z,9.33
2019-05-20T12:06:21.716Z,9.67
2019-05-20T12:08:53.029Z,9.20
2019-05-20T12:11:24.914Z,9.63
2019-05-20T12:13:55.513Z,9.67
2019-05-20T12:16:26.359Z,10.27
2019-05-20T12:18:57.312Z,9.27
2019-05-20T12:21:32.036Z,9.13
2019-05-20T12:24:06.000Z,9.60
2019-05-20T12:26:37.618Z,10.13
2019-05-20T12:29:18.490Z,10.40
2019-05-20T12:32:03.358Z,10.60
2019-05-20T12:34:49.900Z,10.74
2019-05-20T12:37:25.588Z,11.73
2019-05-20T12:40:06.390Z,11.07
2019-05-20T12:42:28.769Z,13.47
2019-05-20T12:45:06.543Z,13.90
2019-05-20T12:47:43.811Z,12.97
2019-05-20T12:50:23.858Z,13.50
2019-05-20T12:52:54.506Z,13.83
2019-05-20T12:55:56.929Z,15.23
2019-05-20T12:58:28.430Z,14.20
2019-05-20T13:00:59.472Z,15.40
2019-05-20T13:03:30.312Z,15.97
2019-05-20T13:06:04.959Z,16.13
2019-05-20T13:08:35.650Z,15.20
2019-05-20T13:11:06.380Z,16.30
2019-05-20T13:13:37.720Z,16.23
2019-05-20T13:16:08.546Z,16.27
2019-05-20T13:18:53.507Z,15.80
2019-05-20T13:21:12.507Z,15.10
2019-05-20T13:23:43.528Z,13.72
2019-05-20T13:26:14.737Z,14.70
2019-05-20T13:28:59.478Z,14.47
2019-05-20T13:31:47.245Z,14.20
2019-05-20T13:34:18.784Z,14.47
2019-05-20T13:36:49.563Z,14.03
2019-05-20T13:39:20.400Z,14.67
2019-05-20T13:41:51.553Z,14.75
2019-05-20T13:44:22.420Z,14.83
2019-05-20T13:47:22.478Z,14.80
2019-05-20T13:49:33.628Z,15.80
2019-05-20T13:54:41.448Z,16.13
2019-05-20T13:57:13.375Z,16.47
2019-05-20T14:00:03.042Z,17.90
2019-05-20T14:03:18.127Z,18.27
2019-05-20T14:06:30.861Z,18.07
2019-05-20T14:09:07.891Z,19.30
2019-05-20T14:11:38.904Z,17.93
2019-05-20T14:14:09.553Z,19.13
2019-05-20T14:16:40.795Z,18.17
2019-05-20T14:19:11.644Z,18.20
2019-05-20T14:21:42.751Z,19.32
2019-05-20T14:24:13.613Z,20.17
2019-05-20T14:26:44.918Z,19.70
2019-05-20T14:29:16.244Z,18.93
2019-05-20T14:31:47.188Z,20.37
2019-05-20T14:34:18.146Z,19.93
2019-05-20T14:36:52.615Z,18.03
2019-05-20T14:39:24.519Z,19.77
2019-05-20T14:41:55.947Z,18.87
2019-05-20T14:44:26.578Z,18.33
2019-05-20T14:46:57.742Z,18.83
2019-05-20T14:49:29.049Z,18.07
2019-05-20T14:52:01.100Z,18.37
2019-05-20T14:54:35.028Z,17.30
2019-05-20T14:57:05.800Z,17.73
2019-05-20T14:59:36.855Z,18.23
2019-05-20T15:02:14.404Z,17.13
2019-05-20T15:04:50.948Z,16.90
2019-05-20T15:07:47.436Z,17.13
2019-05-20T15:10:26.118Z,17.67
2019-05-20T15:13:07.649Z,17.60
2019-05-20T15:16:07.831Z,17.22
2019-05-20T15:18:58.028Z,17.52
2019-05-20T15:21:51.136Z,16.73
2019-05-20T15:24:53.166Z,16.20
2019-05-20T15:27:27.325Z,15.87
2019-05-20T15:29:59.112Z,15.37
2019-05-20T15:32:31.553Z,15.73
2019-05-20T15:35:02.709Z,15.57
2019-05-20T15:37:34.146Z,16.17
2019-05-20T15:40:05.395Z,15.67
2019-05-20T15:42:36.418Z,15.50
2019-05-20T15:45:08.449Z,16.50
2019-05-20T15:47:41.691Z,16.20
2019-05-20T15:50:12.706Z,15.97
2019-05-20T15:52:44.254Z,16.80
2019-05-20T15:55:24.421Z,16.40
2019-05-20T15:57:58.771Z,15.93
2019-05-20T16:00:30.510Z,15.77
2019-05-20T16:03:01.449Z,17.77
2019-05-20T16:05:33.412Z,19.23
2019-05-20T16:08:04.281Z,17.23
2019-05-20T16:10:36.643Z,18.13
2019-05-20T16:13:10.019Z,18.73
2019-05-20T16:15:41.075Z,16.23
2019-05-20T16:18:12.159Z,16.87
2019-05-20T16:20:43.096Z,17.83
2019-05-20T16:23:13.766Z,17.03
2019-05-20T16:25:44.567Z,15.70
2019-05-20T16:28:15.378Z,14.87
2019-05-20T16:30:45.988Z,14.43
2019-05-20T16:33:16.804Z,15.37
2019-05-20T16:35:48.181Z,15.88
2019-05-20T16:38:18.866Z,15.10
2019-05-20T16:40:50.714Z,16.85
2019-05-20T16:43:22.923Z,16.97
2019-05-20T16:45:53.867Z,15.20
2019-05-20T16:48:24.740Z,15.70
2019-05-20T16:50:55.882Z,15.37
2019-05-20T16:53:26.662Z,15.07
2019-05-20T16:55:58.959Z,16.13
2019-05-20T16:58:35.820Z,15.10
2019-05-20T17:01:06.800Z,13.47
2019-05-20T17:03:38.479Z,14.97
2019-05-20T17:06:15.624Z,15.70
2019-05-20T17:08:47.656Z,15.18
2019-05-20T17:11:19.510Z,14.80
2019-05-20T17:13:50.522Z,14.50
2019-05-20T17:16:22.899Z,14.07
2019-05-20T17:18:56.431Z,13.00
2019-05-20T17:21:31.092Z,13.40
2019-05-20T17:24:16.737Z,12.53
2019-05-20T17:29:58.792Z,12.70
2019-05-20T17:32:52.003Z,12.77
2019-05-20T17:35:28.162Z,13.27
2019-05-20T17:38:22.444Z,13.70
2019-05-20T17:40:54.885Z,13.40
2019-05-20T17:43:30.431Z,12.63
2019-05-20T17:46:04.582Z,13.60
2019-05-20T17:48:48.386Z,15.10
2019-05-20T17:51:30.673Z,15.10
2019-05-20T17:54:15.371Z,14.83
2019-05-20T17:57:24.434Z,15.78
2019-05-20T18:00:43.125Z,14.67
2019-05-20T18:04:04.039Z,14.43
2019-05-20T18:07:35.245Z,14.33
2019-05-20T18:11:03.251Z,15.40
2019-05-20T18:14:05.266Z,15.50
2019-05-20T18:17:17.073Z,15.13
2019-05-20T18:19:48.218Z,15.67
2019-05-20T18:22:23.819Z,14.73
2019-05-20T18:24:55.457Z,15.17
2019-05-20T18:27:26.415Z,15.20
2019-05-20T18:29:57.382Z,14.97
2019-05-20T18:32:28.079Z,15.00
2019-05-20T18:35:22.113Z,13.23
2019-05-20T18:37:53.119Z,14.87
2019-05-20T18:40:25.039Z,15.07
2019-05-20T18:42:56.137Z,14.37
2019-05-20T18:45:27.279Z,12.70
2019-05-20T18:47:58.837Z,14.47
2019-05-20T18:50:30.199Z,14.73
2019-05-20T18:53:05.188Z,14.30
2019-05-20T18:55:36.707Z,14.70
2019-05-20T18:58:08.944Z,13.70
2019-05-20T19:00:42.978Z,14.70
2019-05-20T19:03:15.936Z,14.63
2019-05-20T19:05:46.707Z,14.68
2019-05-20T19:08:22.008Z,15.23
2019-05-20T19:11:24.010Z,15.80
2019-05-20T19:13:58.604Z,15.30
2019-05-20T19:16:33.148Z,16.97
2019-05-20T19:19:07.487Z,15.60
2019-05-20T19:21:46.280Z,15.18
2019-05-20T19:24:38.633Z,15.77
2019-05-20T19:27:11.734Z,14.73
2019-05-20T19:29:42.640Z,16.27
2019-05-20T19:32:15.142Z,15.33
2019-05-20T19:34:46.851Z,16.05
2019-05-20T19:37:17.667Z,15.07
2019-05-20T19:39:52.142Z,14.10
2019-05-20T19:42:26.091Z,13.20
2019-05-20T19:44:58.425Z,13.83
2019-05-20T19:47:29.201Z,12.50
2019-05-20T19:50:02.450Z,14.80
2019-05-20T19:52:36.061Z,12.98
2019-05-20T19:55:08.760Z,13.60
2019-05-20T19:57:41.536Z,12.80
2019-05-20T20:00:22.440Z,13.73
2019-05-20T20:02:58.782Z,13.47
2019-05-20T20:08:39.920Z,11.73
2019-05-20T20:11:17.985Z,12.73
2019-05-20T20:13:52.547Z,11.30
2019-05-20T20:16:28.589Z,11.17
2019-05-20T20:19:14.744Z,10.13
2019-05-20T20:21:56.972Z,12.57
2019-05-20T20:24:37.824Z,11.87
2019-05-20T20:27:11.901Z,14.23
2019-05-20T20:29:45.366Z,13.85
2019-05-20T20:32:37.803Z,16.17
2019-05-20T20:35:17.338Z,14.40
2019-05-20T20:38:03.335Z,16.60
2019-05-20T20:41:21.851Z,15.87
2019-05-20T20:44:08.974Z,17.50
2019-05-20T20:47:13.927Z,17.33
2019-05-20T20:50:11.899Z,17.20
2019-05-20T20:52:55.162Z,17.23
2019-05-20T20:55:59.588Z,16.40
2019-05-20T20:58:52.360Z,15.83
2019-05-20T21:01:54.223Z,15.93
2019-05-20T21:04:47.288Z,15.23
2019-05-20T21:07:52.388Z,13.97
2019-05-20T21:10:39.897Z,15.20
2019-05-20T21:14:08.810Z,15.50
2019-05-20T21:17:25.243Z,16.50
2019-05-20T21:22:32.380Z,16.27
2019-05-20T21:26:10.973Z,16.53
2019-05-20T21:32:51.316Z,18.33
2019-05-20T21:36:04.456Z,18.07
2019-05-20T21:39:19.895Z,18.83
2019-05-20T21:42:44.041Z,19.85
2019-05-20T21:50:09.774Z,19.43
2019-05-20T21:53:22.936Z,17.90
2019-05-20T22:01:55.929Z,18.47
2019-05-20T22:15:36.601Z,18.33
2019-05-20T22:18:56.688Z,18.98
2019-05-20T22:25:21.182Z,17.70
2019-05-20T22:25:38.557Z,17.70
2019-05-20T22:27:51.761Z,18.10
2019-05-20T22:30:22.860Z,18.07
2019-05-20T22:32:53.809Z,17.47
2019-05-20T22:35:24.403Z,17.10
2019-05-20T22:37:55.698Z,18.10
2019-05-20T22:40:26.574Z,15.87
2019-05-20T22:42:57.549Z,16.03
2019-05-20T22:45:28.336Z,17.13
2019-05-20T22:47:58.937Z,15.97
2019-05-20T22:50:29.631Z,16.10
2019-05-20T22:53:00.937Z,15.37
2019-05-20T22:55:31.553Z,14.03
2019-05-20T22:58:02.413Z,14.87
2019-05-20T23:00:34.331Z,15.13
2019-05-20T23:03:04.923Z,15.67
2019-05-20T23:05:35.813Z,14.73
2019-05-20T23:08:06.365Z,13.53
2019-05-20T23:10:37.006Z,14.20
2019-05-20T23:13:07.571Z,13.23
2019-05-20T23:15:38.539Z,13.30
2019-05-20T23:18:09.513Z,12.40
2019-05-20T23:20:40.649Z,12.07
2019-05-20T23:23:11.382Z,11.93
2019-05-20T23:25:42.578Z,10.93
2019-05-20T23:28:13.462Z,12.53
2019-05-20T23:30:44.105Z,12.50
2019-05-20T23:33:14.704Z,12.13
2019-05-20T23:35:45.677Z,12.47
2019-05-20T23:38:16.493Z,11.63
2019-05-20T23:40:47.044Z,11.25
2019-05-20T23:43:17.638Z,11.87
2019-05-20T23:45:48.554Z,11.60
2019-05-20T23:48:19.441Z,11.23
2019-05-20T23:50:50.083Z,12.07
2019-05-20T23:53:20.727Z,11.43
2019-05-20T23:55:51.723Z,11.80
2019-05-20T23:58:22.615Z,12.07
